createdAt,value
2023-02-27T00:01:22.246Z,4.05
2023-02-27T00:03:50.160Z,4.35
2023-02-27T00:06:18.565Z,4.35
2023-02-27T00:08:47.060Z,4.90
2023-02-27T00:11:15.003Z,5.30
2023-02-27T00:13:42.974Z,4.75
2023-02-27T00:16:13.023Z,4.18
2023-02-27T00:18:41.190Z,4.53
2023-02-27T00:21:09.119Z,4.53
2023-02-27T00:23:37.052Z,4.88
2023-02-27T00:26:05.054Z,4.10
2023-02-27T00:28:33.025Z,4.45
2023-02-27T00:31:00.923Z,4.50
2023-02-27T00:33:30.182Z,4.70
2023-02-27T00:35:58.673Z,4.70
2023-02-27T00:38:26.855Z,4.70
2023-02-27T00:40:55.165Z,4.30
2023-02-27T00:43:23.025Z,4.77
2023-02-27T00:45:50.907Z,4.20
2023-02-27T00:48:18.799Z,4.60
2023-02-27T00:50:48.111Z,4.30
2023-02-27T00:53:15.995Z,4.72
2023-02-27T00:55:43.938Z,4.53
2023-02-27T00:58:11.788Z,4.03
2023-02-27T01:00:40.009Z,5.40
2023-02-27T01:03:07.915Z,4.75
2023-02-27T01:05:35.825Z,4.80
2023-02-27T01:08:05.380Z,5.10
2023-02-27T01:10:33.257Z,4.35
2023-02-27T01:13:01.363Z,4.80
2023-02-27T01:15:29.914Z,5.07
2023-02-27T01:17:57.771Z,4.60
2023-02-27T01:20:25.657Z,4.65
2023-02-27T01:22:53.485Z,4.90
2023-02-27T01:25:22.719Z,5.07
2023-02-27T01:27:50.528Z,5.18
2023-02-27T01:30:18.593Z,4.82
2023-02-27T01:32:46.604Z,5.03
2023-02-27T01:35:14.529Z,5.10
2023-02-27T01:37:42.508Z,5.10
2023-02-27T01:40:12.134Z,4.53
2023-02-27T01:42:41.387Z,5.90
2023-02-27T01:45:27.703Z,4.65
2023-02-27T01:48:01.963Z,5.47
2023-02-27T01:50:29.829Z,5.05
2023-02-27T01:53:03.963Z,4.90
2023-02-27T01:55:34.961Z,4.80
2023-02-27T01:58:04.771Z,4.60
2023-02-27T02:00:32.685Z,5.03
2023-02-27T02:05:51.061Z,5.03
2023-02-27T02:08:22.036Z,3.90
2023-02-27T02:10:52.798Z,4.65
2023-02-27T02:13:23.196Z,4.70
2023-02-27T02:16:05.345Z,5.40
2023-02-27T02:18:44.043Z,4.70
2023-02-27T02:21:46.731Z,4.82
2023-02-27T02:25:02.971Z,6.28
2023-02-27T02:27:45.278Z,2.70
2023-02-27T02:30:45.973Z,2.90
2023-02-27T02:33:45.736Z,1.63
2023-02-27T02:36:53.405Z,1.00
2023-02-27T02:39:34.140Z,1.10
2023-02-27T02:42:06.172Z,1.10
2023-02-27T02:44:43.281Z,1.30
2023-02-27T02:47:21.988Z,0.97
2023-02-27T02:49:57.961Z,0.83
2023-02-27T02:52:37.049Z,1.03
2023-02-27T02:55:12.520Z,0.93
2023-02-27T02:57:44.284Z,0.90
2023-02-27T03:00:18.147Z,1.07
2023-02-27T03:02:50.050Z,1.23
2023-02-27T03:05:23.646Z,0.90
2023-02-27T03:07:58.054Z,1.00
2023-02-27T03:10:32.144Z,1.10
2023-02-27T03:13:03.918Z,1.40
2023-02-27T03:15:36.959Z,2.30
2023-02-27T03:18:08.824Z,2.80
2023-02-27T03:20:42.777Z,3.30
2023-02-27T03:23:14.096Z,3.30
2023-02-27T03:25:46.825Z,3.43
2023-02-27T03:28:19.731Z,3.00
2023-02-27T03:30:53.451Z,2.57
2023-02-27T03:33:26.364Z,2.60
2023-02-27T03:36:00.264Z,2.67
2023-02-27T03:38:37.441Z,2.77
2023-02-27T03:41:15.614Z,2.93
2023-02-27T03:43:51.231Z,2.47
2023-02-27T03:46:23.725Z,2.70
2023-02-27T03:48:51.776Z,2.80
2023-02-27T03:51:22.779Z,2.70
2023-02-27T03:53:55.885Z,2.50
2023-02-27T03:56:29.643Z,2.37
2023-02-27T03:58:57.703Z,2.40
2023-02-27T04:01:26.282Z,2.40
2023-02-27T04:03:58.037Z,2.60
2023-02-27T04:06:43.911Z,2.40
2023-02-27T04:09:23.788Z,2.50
2023-02-27T04:12:12.956Z,2.43
2023-02-27T04:14:53.386Z,2.80
2023-02-27T04:17:27.054Z,2.70
2023-02-27T04:20:19.347Z,2.33
2023-02-27T04:22:50.937Z,2.63
2023-02-27T04:25:32.936Z,2.50
2023-02-27T04:28:10.282Z,2.40
2023-02-27T04:30:47.025Z,2.77
2023-02-27T04:33:21.204Z,2.40
2023-02-27T04:35:52.314Z,2.63
2023-02-27T04:38:24.033Z,2.30
2023-02-27T04:40:56.835Z,2.77
2023-02-27T04:43:29.351Z,3.10
2023-02-27T04:46:00.983Z,2.80
2023-02-27T04:48:34.445Z,2.60
2023-02-27T04:51:09.848Z,2.20
2023-02-27T04:53:46.644Z,2.27
2023-02-27T04:56:21.621Z,2.23
2023-02-27T04:58:54.168Z,1.97
2023-02-27T05:01:30.012Z,2.00
2023-02-27T05:04:00.622Z,2.60
2023-02-27T05:06:31.849Z,2.10
2023-02-27T05:09:07.563Z,1.90
2023-02-27T05:11:42.572Z,4.10
2023-02-27T05:14:18.354Z,1.90
2023-02-27T05:16:51.518Z,2.73
2023-02-27T05:19:20.682Z,3.03
2023-02-27T05:21:56.891Z,6.23
2023-02-27T05:24:34.129Z,1.60
2023-02-27T05:27:17.958Z,8.50
2023-02-27T05:29:50.834Z,2.73
2023-02-27T05:32:26.468Z,2.00
2023-02-27T05:34:58.226Z,4.97
2023-02-27T05:37:32.378Z,2.23
2023-02-27T05:40:06.560Z,2.40
2023-02-27T05:42:39.384Z,2.03
2023-02-27T05:45:13.245Z,2.87
2023-02-27T05:47:45.918Z,2.80
2023-02-27T05:50:17.510Z,2.90
2023-02-27T05:52:47.960Z,1.70
2023-02-27T05:55:23.351Z,1.50
2023-02-27T05:57:55.859Z,1.60
2023-02-27T06:00:31.586Z,1.90
2023-02-27T06:02:59.661Z,1.77
2023-02-27T06:05:29.089Z,1.43
2023-02-27T06:07:57.209Z,1.70
2023-02-27T06:10:25.954Z,1.63
2023-02-27T06:12:53.872Z,1.70
2023-02-27T06:15:23.079Z,1.80
2023-02-27T06:17:52.317Z,1.73
2023-02-27T06:20:20.258Z,2.43
2023-02-27T06:22:48.118Z,2.40
2023-02-27T06:25:16.124Z,1.70
2023-02-27T06:27:44.189Z,2.30
2023-02-27T06:30:14.082Z,1.90
2023-02-27T06:32:41.999Z,2.07
2023-02-27T06:35:13.697Z,1.80
2023-02-27T06:37:41.577Z,1.83
2023-02-27T06:40:12.526Z,1.80
2023-02-27T06:42:40.561Z,1.73
2023-02-27T06:45:10.599Z,1.83
2023-02-27T06:47:38.582Z,2.03
2023-02-27T06:50:07.291Z,2.00
2023-02-27T06:52:36.788Z,2.00
2023-02-27T06:55:05.034Z,2.17
2023-02-27T06:57:33.027Z,1.97
2023-02-27T07:00:00.969Z,1.80
2023-02-27T07:02:28.865Z,2.30
2023-02-27T07:04:57.597Z,1.90
2023-02-27T07:07:35.269Z,1.90
2023-02-27T07:10:08.115Z,2.30
2023-02-27T07:12:35.983Z,2.30
2023-02-27T07:15:04.126Z,2.10
2023-02-27T07:17:32.202Z,2.10
2023-02-27T07:20:00.170Z,1.80
2023-02-27T07:22:28.120Z,2.10
2023-02-27T07:24:55.999Z,2.27
2023-02-27T07:27:25.322Z,2.30
2023-02-27T07:29:54.080Z,2.10
2023-02-27T07:32:22.153Z,2.30
2023-02-27T07:34:50.113Z,1.97
2023-02-27T07:37:18.181Z,2.10
2023-02-27T07:39:46.125Z,1.80
2023-02-27T07:42:14.005Z,2.17
2023-02-27T07:44:43.257Z,2.30
2023-02-27T07:47:11.367Z,1.90
2023-02-27T07:49:39.315Z,2.13
2023-02-27T07:52:07.881Z,1.90
2023-02-27T07:54:37.602Z,1.93
2023-02-27T07:57:05.858Z,1.80
2023-02-27T07:59:33.884Z,1.73
2023-02-27T08:02:03.320Z,1.87
2023-02-27T08:04:31.326Z,2.17
2023-02-27T08:06:59.405Z,1.77
2023-02-27T08:09:27.298Z,1.80
2023-02-27T08:11:55.125Z,1.80
2023-02-27T08:14:23.228Z,1.90
2023-02-27T08:16:51.261Z,2.03
2023-02-27T08:19:20.464Z,1.90
2023-02-27T08:21:48.345Z,1.87
2023-02-27T08:24:16.203Z,2.90
2023-02-27T08:26:44.169Z,2.07
2023-02-27T08:29:12.201Z,2.00
2023-02-27T08:31:40.125Z,1.97
2023-02-27T08:34:10.571Z,2.37
2023-02-27T08:36:40.425Z,2.20
2023-02-27T08:39:09.843Z,1.90
2023-02-27T08:41:37.938Z,1.80
2023-02-27T08:44:06.090Z,2.00
2023-02-27T08:46:34.037Z,2.83
2023-02-27T08:49:03.155Z,2.20
2023-02-27T08:51:31.265Z,2.87
2023-02-27T08:54:00.460Z,2.67
2023-02-27T08:56:28.867Z,2.17
2023-02-27T08:58:57.337Z,4.03
2023-02-27T09:01:27.589Z,2.90
2023-02-27T09:03:55.697Z,2.47
2023-02-27T09:06:26.105Z,8.83
2023-02-27T09:08:54.147Z,3.30
2023-02-27T09:11:23.445Z,3.50
2023-02-27T09:13:52.800Z,3.00
2023-02-27T09:16:21.437Z,2.40
2023-02-27T09:18:49.878Z,2.90
2023-02-27T09:21:18.474Z,2.70
2023-02-27T09:23:46.338Z,2.50
2023-02-27T09:26:14.297Z,2.70
2023-02-27T09:28:43.742Z,2.67
2023-02-27T09:31:12.548Z,2.50
2023-02-27T09:33:40.655Z,3.15
2023-02-27T09:36:09.356Z,3.67
2023-02-27T09:38:38.842Z,3.28
2023-02-27T09:41:09.117Z,2.70
2023-02-27T09:43:44.477Z,2.45
2023-02-27T09:46:19.325Z,2.58
2023-02-27T09:48:51.611Z,2.67
2023-02-27T09:51:20.970Z,2.70
2023-02-27T09:53:52.400Z,17.83
2023-02-27T09:56:25.378Z,3.33
2023-02-27T09:59:02.365Z,2.95
2023-02-27T10:01:37.224Z,3.90
2023-02-27T10:04:31.884Z,2.88
2023-02-27T10:07:08.211Z,3.17
2023-02-27T10:09:45.362Z,3.05
2023-02-27T10:12:25.404Z,2.88
2023-02-27T10:14:58.824Z,2.90
2023-02-27T10:17:31.719Z,4.90
2023-02-27T10:20:03.854Z,3.45
2023-02-27T10:22:36.356Z,3.63
2023-02-27T10:25:28.407Z,3.38
2023-02-27T10:28:03.751Z,3.03
2023-02-27T10:30:34.680Z,3.15
2023-02-27T10:33:10.987Z,3.67
2023-02-27T10:35:42.326Z,3.42
2023-02-27T10:38:15.491Z,3.60
2023-02-27T10:40:44.643Z,3.38
2023-02-27T10:43:16.725Z,3.15
2023-02-27T10:45:44.741Z,3.08
2023-02-27T10:48:14.980Z,3.15
2023-02-27T10:50:45.043Z,4.15
2023-02-27T10:53:21.436Z,3.22
2023-02-27T10:56:01.813Z,3.25
2023-02-27T10:58:34.775Z,3.42
2023-02-27T11:01:05.730Z,3.30
2023-02-27T11:03:41.326Z,3.50
2023-02-27T11:06:13.744Z,3.33
2023-02-27T11:08:41.751Z,3.63
2023-02-27T11:11:12.021Z,3.42
2023-02-27T11:13:41.435Z,3.95
2023-02-27T11:16:13.295Z,4.05
2023-02-27T11:18:47.008Z,4.07
2023-02-27T11:21:22.796Z,3.60
2023-02-27T11:23:52.845Z,4.63
2023-02-27T11:26:24.884Z,3.95
2023-02-27T11:29:14.947Z,4.13
2023-02-27T11:31:48.404Z,5.28
2023-02-27T11:34:30.208Z,4.18
2023-02-27T11:37:02.837Z,3.80
2023-02-27T11:39:35.320Z,4.07
2023-02-27T11:42:18.255Z,3.83
2023-02-27T11:44:55.970Z,3.60
2023-02-27T11:47:29.136Z,4.90
2023-02-27T11:50:39.746Z,3.80
2023-02-27T11:53:27.192Z,4.20
2023-02-27T11:55:59.508Z,3.90
2023-02-27T11:58:33.750Z,4.40
2023-02-27T12:01:06.702Z,3.78
2023-02-27T12:03:44.948Z,3.72
2023-02-27T12:06:19.979Z,3.80
2023-02-27T12:08:54.427Z,3.45
2023-02-27T12:11:28.412Z,3.30
2023-02-27T12:14:04.007Z,3.78
2023-02-27T12:16:37.428Z,3.70
2023-02-27T12:19:14.872Z,4.00
2023-02-27T12:21:49.239Z,3.65
2023-02-27T12:24:25.934Z,5.35
2023-02-27T12:27:02.187Z,3.63
2023-02-27T12:29:37.053Z,3.95
2023-02-27T12:32:15.876Z,3.75
2023-02-27T12:34:48.429Z,4.00
2023-02-27T12:37:29.127Z,4.03
2023-02-27T12:40:02.382Z,3.88
2023-02-27T12:43:02.434Z,3.55
2023-02-27T12:45:49.117Z,3.95
2023-02-27T12:48:33.738Z,4.97
2023-02-27T12:51:13.419Z,3.55
2023-02-27T12:54:06.921Z,3.20
2023-02-27T12:56:47.192Z,3.40
2023-02-27T12:59:33.320Z,3.88
2023-02-27T13:02:16.164Z,4.10
2023-02-27T13:04:47.001Z,3.60
2023-02-27T13:07:22.589Z,3.65
2023-02-27T13:09:54.164Z,3.55
2023-02-27T13:12:30.680Z,3.42
2023-02-27T13:15:04.677Z,3.45
2023-02-27T13:17:38.713Z,3.40
2023-02-27T13:20:30.746Z,3.88
2023-02-27T13:23:12.116Z,3.25
2023-02-27T13:25:44.924Z,3.80
2023-02-27T13:28:19.490Z,3.10
2023-02-27T13:30:53.994Z,3.03
2023-02-27T13:33:30.340Z,3.22
2023-02-27T13:36:08.591Z,3.17
2023-02-27T13:38:43.937Z,3.33
2023-02-27T13:41:38.588Z,3.17
2023-02-27T13:45:00.737Z,3.25
2023-02-27T13:47:50.881Z,3.33
2023-02-27T13:50:51.623Z,3.72
2023-02-27T13:53:22.491Z,3.30
2023-02-27T13:56:18.569Z,3.17
2023-02-27T13:58:46.774Z,3.37
2023-02-27T14:01:18.897Z,3.22
2023-02-27T14:03:58.121Z,4.23
2023-02-27T14:06:28.426Z,3.70
2023-02-27T14:09:14.862Z,3.40
2023-02-27T14:11:55.106Z,3.73
2023-02-27T14:14:45.099Z,3.23
2023-02-27T14:17:15.578Z,3.60
2023-02-27T14:20:00.193Z,3.20
2023-02-27T14:22:54.509Z,3.30
2023-02-27T14:25:27.453Z,3.60
2023-02-27T14:27:57.765Z,3.53
2023-02-27T14:30:39.457Z,3.70
2023-02-27T14:33:19.483Z,4.03
2023-02-27T14:35:59.084Z,3.17
2023-02-27T14:38:29.544Z,4.07
2023-02-27T14:41:18.760Z,3.33
2023-02-27T14:43:55.170Z,4.07
2023-02-27T14:46:27.289Z,4.03
2023-02-27T14:48:57.363Z,4.10
2023-02-27T14:51:30.432Z,3.87
2023-02-27T14:54:07.366Z,3.97
2023-02-27T14:56:36.110Z,4.07
2023-02-27T14:59:05.227Z,3.90
2023-02-27T15:01:37.183Z,3.67
2023-02-27T15:04:06.226Z,3.40
2023-02-27T15:06:44.278Z,4.43
2023-02-27T15:09:22.522Z,4.07
2023-02-27T15:12:02.589Z,4.47
2023-02-27T15:14:34.466Z,4.37
2023-02-27T15:17:02.692Z,4.33
2023-02-27T15:19:32.360Z,4.80
2023-02-27T15:22:05.591Z,4.13
2023-02-27T15:24:49.307Z,4.10
2023-02-27T15:27:21.331Z,4.23
2023-02-27T15:29:53.432Z,4.47
2023-02-27T15:32:27.807Z,4.57
2023-02-27T15:34:57.366Z,6.33
2023-02-27T15:37:30.426Z,4.23
2023-02-27T15:40:00.259Z,5.03
2023-02-27T15:42:31.880Z,4.70
2023-02-27T15:45:00.830Z,5.00
2023-02-27T15:47:30.928Z,5.03
2023-02-27T15:50:02.869Z,4.30
2023-02-27T15:52:43.231Z,5.30
2023-02-27T15:55:16.292Z,4.63
2023-02-27T15:57:56.629Z,6.30
2023-02-27T16:00:32.341Z,5.33
2023-02-27T16:03:01.247Z,5.80
2023-02-27T16:05:34.518Z,4.50
2023-02-27T16:08:04.174Z,5.50
2023-02-27T16:10:37.617Z,5.93
2023-02-27T16:13:20.913Z,5.40
2023-02-27T16:16:00.213Z,5.00
2023-02-27T16:18:34.605Z,5.73
2023-02-27T16:21:14.690Z,5.97
2023-02-27T16:23:44.657Z,5.97
2023-02-27T16:26:28.415Z,5.70
2023-02-27T16:28:59.913Z,5.80
2023-02-27T16:31:31.085Z,5.83
2023-02-27T16:34:02.070Z,5.50
2023-02-27T16:36:32.564Z,5.87
2023-02-27T16:39:01.842Z,5.67
2023-02-27T16:41:30.332Z,6.60
2023-02-27T16:43:58.367Z,6.30
2023-02-27T16:46:26.488Z,6.50
2023-02-27T16:48:55.942Z,6.10
2023-02-27T16:51:26.400Z,6.10
2023-02-27T16:53:55.817Z,6.43
2023-02-27T16:56:37.733Z,6.43
2023-02-27T16:59:06.078Z,6.23
2023-02-27T17:01:34.478Z,6.57
2023-02-27T17:04:05.263Z,7.60
2023-02-27T17:06:37.032Z,7.00
2023-02-27T17:09:05.281Z,6.70
2023-02-27T17:11:34.527Z,6.93
2023-02-27T17:14:02.453Z,6.97
2023-02-27T17:16:30.751Z,7.10
2023-02-27T17:18:58.937Z,6.50
2023-02-27T17:21:27.631Z,7.20
2023-02-27T17:23:55.675Z,7.33
2023-02-27T17:26:23.783Z,6.63
2023-02-27T17:28:53.014Z,6.37
2023-02-27T17:31:23.173Z,7.17
2023-02-27T17:33:51.906Z,6.77
2023-02-27T17:36:20.162Z,6.57
2023-02-27T17:38:48.920Z,8.30
2023-02-27T17:41:17.498Z,8.13
2023-02-27T17:43:45.447Z,8.13
2023-02-27T17:46:15.242Z,9.23
2023-02-27T17:48:43.351Z,7.87
2023-02-27T17:51:14.482Z,7.20
2023-02-27T17:53:43.953Z,7.83
2023-02-27T17:56:13.417Z,8.23
2023-02-27T17:58:41.644Z,7.20
2023-02-27T18:01:11.884Z,7.07
2023-02-27T18:03:44.044Z,22.53
2023-02-27T18:06:11.995Z,13.10
2023-02-27T18:08:40.202Z,7.57
2023-02-27T18:11:10.682Z,7.30
2023-02-27T18:13:38.987Z,7.93
2023-02-27T18:16:07.867Z,7.87
2023-02-27T18:18:36.763Z,8.00
2023-02-27T18:21:08.152Z,7.80
2023-02-27T18:23:36.140Z,7.90
2023-02-27T18:26:04.557Z,8.20
2023-02-27T18:28:32.563Z,8.67
2023-02-27T18:31:00.937Z,8.30
2023-02-27T18:33:29.138Z,7.97
2023-02-27T18:35:57.180Z,7.93
2023-02-27T18:38:26.737Z,7.37
2023-02-27T18:40:55.190Z,7.33
2023-02-27T18:43:23.085Z,7.57
2023-02-27T18:45:51.160Z,7.50
2023-02-27T18:48:19.001Z,8.17
2023-02-27T18:50:46.911Z,6.80
2023-02-27T18:53:14.806Z,7.33
2023-02-27T18:55:44.396Z,6.57
2023-02-27T18:58:12.286Z,6.60
2023-02-27T19:00:42.389Z,7.67
2023-02-27T19:03:10.363Z,6.97
2023-02-27T19:05:42.045Z,7.53
2023-02-27T19:08:09.920Z,7.53
2023-02-27T19:10:39.441Z,7.43
2023-02-27T19:13:09.475Z,7.03
2023-02-27T19:15:37.370Z,7.17
2023-02-27T19:18:05.730Z,8.10
2023-02-27T19:20:34.755Z,8.07
2023-02-27T19:23:02.902Z,8.37
2023-02-27T19:25:32.142Z,8.03
2023-02-27T19:28:00.446Z,7.27
2023-02-27T19:30:29.896Z,7.37
2023-02-27T19:32:57.919Z,7.60
2023-02-27T19:35:26.488Z,7.37
2023-02-27T19:37:58.117Z,8.17
2023-02-27T19:40:27.292Z,7.77
2023-02-27T19:42:55.155Z,8.47
2023-02-27T19:45:23.306Z,9.00
2023-02-27T19:47:53.110Z,9.60
2023-02-27T19:50:21.046Z,9.93
2023-02-27T19:52:49.380Z,8.27
2023-02-27T19:55:17.396Z,8.60
2023-02-27T19:57:45.357Z,9.70
2023-02-27T20:00:14.541Z,9.23
2023-02-27T20:02:42.473Z,8.80
2023-02-27T20:05:14.629Z,8.17
2023-02-27T20:07:42.593Z,7.77
2023-02-27T20:10:12.200Z,7.23
2023-02-27T20:12:40.086Z,8.37
2023-02-27T20:15:11.592Z,7.73
2023-02-27T20:17:41.996Z,7.90
2023-02-27T20:20:15.089Z,7.30
2023-02-27T20:22:44.400Z,7.13
2023-02-27T20:25:13.752Z,6.53
2023-02-27T20:27:41.679Z,7.13
2023-02-27T20:30:11.322Z,7.27
2023-02-27T20:32:39.377Z,7.13
2023-02-27T20:35:08.619Z,6.63
2023-02-27T20:37:38.989Z,6.13
2023-02-27T20:40:08.470Z,6.07
2023-02-27T20:42:36.498Z,7.40
2023-02-27T20:45:05.398Z,6.33
2023-02-27T20:47:34.220Z,7.00
2023-02-27T20:50:02.230Z,6.13
2023-02-27T20:52:30.606Z,7.30
2023-02-27T20:54:59.877Z,6.97
2023-02-27T20:57:27.744Z,6.60
2023-02-27T20:59:55.681Z,7.47
2023-02-27T21:02:23.832Z,7.47
2023-02-27T21:04:53.465Z,7.80
2023-02-27T21:07:22.634Z,7.53
2023-02-27T21:09:51.282Z,7.67
2023-02-27T21:12:20.641Z,5.70
2023-02-27T21:14:49.389Z,6.30
2023-02-27T21:17:17.302Z,5.77
2023-02-27T21:19:45.195Z,6.30
2023-02-27T21:22:14.315Z,5.70
2023-02-27T21:24:42.153Z,6.03
2023-02-27T21:27:10.138Z,5.70
2023-02-27T21:29:39.984Z,6.03
2023-02-27T21:32:08.138Z,5.57
2023-02-27T21:34:36.113Z,5.33
2023-02-27T21:37:06.278Z,5.50
2023-02-27T21:39:34.464Z,5.53
2023-02-27T21:42:02.343Z,5.20
2023-02-27T21:44:31.897Z,5.03
2023-02-27T21:47:10.252Z,3.83
2023-02-27T21:49:39.296Z,4.67
2023-02-27T21:52:07.563Z,4.53
2023-02-27T21:54:35.787Z,4.20
2023-02-27T21:57:05.472Z,6.00
2023-02-27T21:59:33.489Z,3.93
2023-02-27T22:02:02.836Z,4.37
2023-02-27T22:04:30.728Z,4.50
2023-02-27T22:06:58.664Z,4.03
2023-02-27T22:09:26.554Z,4.57
2023-02-27T22:11:54.430Z,4.60
2023-02-27T22:14:22.317Z,3.80
2023-02-27T22:16:50.212Z,4.00
2023-02-27T22:19:21.976Z,3.63
2023-02-27T22:21:50.027Z,3.90
2023-02-27T22:24:18.391Z,3.73
2023-02-27T22:26:47.815Z,3.53
2023-02-27T22:29:17.045Z,3.40
2023-02-27T22:31:45.076Z,3.97
2023-02-27T22:34:18.130Z,3.90
2023-02-27T22:36:48.567Z,3.60
2023-02-27T22:39:16.473Z,3.47
2023-02-27T22:41:44.614Z,3.97
2023-02-27T22:44:14.973Z,4.00
2023-02-27T22:46:45.614Z,4.43
2023-02-27T22:49:15.523Z,4.50
2023-02-27T22:51:43.786Z,5.00
2023-02-27T22:54:15.484Z,4.93
2023-02-27T22:56:44.007Z,5.43
2023-02-27T22:59:11.991Z,6.40
2023-02-27T23:01:40.061Z,5.87
2023-02-27T23:04:11.342Z,6.30
2023-02-27T23:06:40.837Z,5.87
2023-02-27T23:09:11.782Z,7.00
2023-02-27T23:11:42.067Z,5.87
2023-02-27T23:14:10.177Z,5.93
2023-02-27T23:16:38.137Z,5.97
2023-02-27T23:19:06.238Z,7.23
2023-02-27T23:21:36.086Z,6.53
2023-02-27T23:24:05.803Z,6.43
2023-02-27T23:26:36.366Z,6.03
2023-02-27T23:29:06.271Z,6.67
2023-02-27T23:31:40.814Z,6.70
2023-02-27T23:34:08.907Z,7.10
2023-02-27T23:36:38.098Z,7.30
2023-02-27T23:39:06.915Z,7.53
2023-02-27T23:41:35.599Z,7.40
2023-02-27T23:44:05.329Z,7.67
2023-02-27T23:46:33.250Z,7.73
2023-02-27T23:49:01.962Z,7.60
2023-02-27T23:51:31.147Z,7.77
2023-02-27T23:53:59.664Z,7.17
2023-02-27T23:56:29.732Z,7.63
2023-02-27T23:58:59.262Z,7.13
